New Market, Indiana
Current Conditions -  °F | °C
As of 11:15 AM on Sunday 25 Jan 2015 (Local Time) from K4I7 Reporting Station
Overcast Overcast  
Wind Chill:   Ceiling: 4400
Heat Index:   Visibility: 10mi
Dew Point:   Wind: 5mph
Humidity: 81%   Direction: 120°ESE
Pressure: 29.66"   Gusts: NA
Location:  39.95°N, 86.92°W
Report Text: K4I7 251615Z AUTO 12004KT 10SM OVC044 03/00 A2966 RMK AO2
Loading
Personal Weather Stations






























Interactive Weather Map New forecast layout! Learn more

10-Day Weather Forecast

Advertisements
Track Severe Weather on mobile